sensor_id;sensor_type;location;lat;lon;timestamp;pressure;altitude;pressure_sealevel;temperature;humidity
42761;BME280;31672;47.638;19.026;2022-11-20T00:03:56;99799.47;;;-0.05;100.00
42761;BME280;31672;47.638;19.026;2022-11-20T00:09:00;99783.88;;;-0.07;100.00
42761;BME280;31672;47.638;19.026;2022-11-20T00:14:04;99794.94;;;-0.03;100.00
42761;BME280;31672;47.638;19.026;2022-11-20T00:19:07;99794.94;;;-0.03;100.00
42761;BME280;31672;47.638;19.026;2022-11-20T00:24:10;99794.94;;;-0.03;100.00
42761;BME280;31672;47.638;19.026;2022-11-20T00:29:13;99785.66;;;-0.07;100.00
42761;BME280;31672;47.638;19.026;2022-11-20T00:34:16;99787.44;;;-0.08;100.00
42761;BME280;31672;47.638;19.026;2022-11-20T00:39:19;99782.22;;;-0.08;100.00
42761;BME280;31672;47.638;19.026;2022-11-20T00:44:22;99793.59;;;-0.09;100.00
42761;BME280;31672;47.638;19.026;2022-11-20T00:49:25;99822.22;;;-0.07;100.00
42761;BME280;31672;47.638;19.026;2022-11-20T00:54:28;99808.13;;;-0.05;100.00
42761;BME280;31672;47.638;19.026;2022-11-20T00:59:31;99801.25;;;-0.06;100.00
42761;BME280;31672;47.638;19.026;2022-11-20T01:04:34;99808.84;;;-0.03;100.00
42761;BME280;31672;47.638;19.026;2022-11-20T01:09:37;99798.72;;;-0.07;100.00
42761;BME280;31672;47.638;19.026;2022-11-20T01:14:40;99807.81;;;-0.13;100.00
42761;BME280;31672;47.638;19.026;2022-11-20T01:19:43;99795.31;;;-0.20;100.00
42761;BME280;31672;47.638;19.026;2022-11-20T01:24:46;99807.78;;;-0.24;100.00
42761;BME280;31672;47.638;19.026;2022-11-20T01:29:49;99802.94;;;-0.30;100.00
42761;BME280;31672;47.638;19.026;2022-11-20T01:34:52;99798.09;;;-0.35;100.00
42761;BME280;31672;47.638;19.026;2022-11-20T01:39:55;99781.91;;;-0.40;100.00
42761;BME280;31672;47.638;19.026;2022-11-20T01:45:00;99774.78;;;-0.38;100.00
42761;BME280;31672;47.638;19.026;2022-11-20T01:55:30;99764.84;;;-0.33;100.00
42761;BME280;31672;47.638;19.026;2022-11-20T02:00:33;99750.66;;;-0.29;100.00
42761;BME280;31672;47.638;19.026;2022-11-20T02:05:56;99755.44;;;-0.22;100.00
42761;BME280;31672;47.638;19.026;2022-11-20T02:11:00;99756.84;;;-0.18;100.00
42761;BME280;31672;47.638;19.026;2022-11-20T02:16:03;99755.59;;;-0.13;100.00
42761;BME280;31672;47.638;19.026;2022-11-20T02:21:28;99745.63;;;-0.08;100.00
42761;BME280;31672;47.638;19.026;2022-11-20T02:26:48;99735.81;;;-0.04;100.00
42761;BME280;31672;47.638;19.026;2022-11-20T02:31:55;99741.44;;;0.03;100.00
42761;BME280;31672;47.638;19.026;2022-11-20T02:36:59;99742.88;;;0.07;100.00
42761;BME280;31672;47.638;19.026;2022-11-20T02:42:03;99720.28;;;0.06;100.00
42761;BME280;31672;47.638;19.026;2022-11-20T02:47:06;99722.91;;;0.06;100.00
42761;BME280;31672;47.638;19.026;2022-11-20T02:52:09;99728.88;;;0.08;100.00
42761;BME280;31672;47.638;19.026;2022-11-20T02:57:12;99745.38;;;0.08;100.00
42761;BME280;31672;47.638;19.026;2022-11-20T03:02:15;99738.25;;;0.10;100.00
42761;BME280;31672;47.638;19.026;2022-11-20T03:07:17;99742.50;;;0.11;100.00
42761;BME280;31672;47.638;19.026;2022-11-20T03:12:21;99717.22;;;0.12;100.00
42761;BME280;31672;47.638;19.026;2022-11-20T03:17:24;99730.19;;;0.13;100.00
42761;BME280;31672;47.638;19.026;2022-11-20T03:22:29;99726.63;;;0.14;100.00
42761;BME280;31672;47.638;19.026;2022-11-20T03:27:34;99742.06;;;0.17;100.00
42761;BME280;31672;47.638;19.026;2022-11-20T03:32:37;99755.03;;;0.19;100.00
42761;BME280;31672;47.638;19.026;2022-11-20T03:37:40;99747.09;;;0.20;100.00
42761;BME280;31672;47.638;19.026;2022-11-20T03:42:43;99725.94;;;0.23;100.00
42761;BME280;31672;47.638;19.026;2022-11-20T03:47:49;99735.47;;;0.24;100.00
42761;BME280;31672;47.638;19.026;2022-11-20T03:52:52;99740.78;;;0.23;100.00
42761;BME280;31672;47.638;19.026;2022-11-20T03:57:55;99747.91;;;0.21;100.00
42761;BME280;31672;47.638;19.026;2022-11-20T04:02:59;99733.19;;;0.20;100.00
42761;BME280;31672;47.638;19.026;2022-11-20T04:08:03;99731.72;;;0.16;100.00
42761;BME280;31672;47.638;19.026;2022-11-20T04:13:06;99727.59;;;0.13;100.00
42761;BME280;31672;47.638;19.026;2022-11-20T04:18:09;99716.31;;;0.13;100.00
42761;BME280;31672;47.638;19.026;2022-11-20T04:23:12;99719.13;;;0.10;100.00
42761;BME280;31672;47.638;19.026;2022-11-20T04:28:15;99714.72;;;0.10;100.00
42761;BME280;31672;47.638;19.026;2022-11-20T04:33:18;99693.13;;;0.08;100.00
42761;BME280;31672;47.638;19.026;2022-11-20T04:38:20;99679.81;;;0.11;100.00
42761;BME280;31672;47.638;19.026;2022-11-20T04:43:24;99684.31;;;0.09;100.00
42761;BME280;31672;47.638;19.026;2022-11-20T04:48:28;99695.50;;;0.11;100.00
42761;BME280;31672;47.638;19.026;2022-11-20T04:53:32;99694.31;;;0.15;100.00
42761;BME280;31672;47.638;19.026;2022-11-20T04:58:35;99671.31;;;0.20;100.00
42761;BME280;31672;47.638;19.026;2022-11-20T05:03:40;99658.94;;;0.22;100.00
42761;BME280;31672;47.638;19.026;2022-11-20T05:08:44;99662.28;;;0.24;100.00
42761;BME280;31672;47.638;19.026;2022-11-20T05:13:50;99668.34;;;0.25;100.00
42761;BME280;31672;47.638;19.026;2022-11-20T05:18:55;99666.22;;;0.30;100.00
42761;BME280;31672;47.638;19.026;2022-11-20T05:23:58;99666.81;;;0.34;100.00
42761;BME280;31672;47.638;19.026;2022-11-20T05:29:01;99667.53;;;0.36;100.00
42761;BME280;31672;47.638;19.026;2022-11-20T05:34:04;99652.31;;;0.41;100.00
42761;BME280;31672;47.638;19.026;2022-11-20T05:39:07;99649.00;;;0.39;100.00
42761;BME280;31672;47.638;19.026;2022-11-20T05:44:12;99652.91;;;0.33;100.00
42761;BME280;31672;47.638;19.026;2022-11-20T05:49:15;99652.44;;;0.28;100.00
42761;BME280;31672;47.638;19.026;2022-11-20T05:54:18;99667.53;;;0.24;100.00
42761;BME280;31672;47.638;19.026;2022-11-20T05:59:21;99665.75;;;0.25;100.00
42761;BME280;31672;47.638;19.026;2022-11-20T06:04:25;99670.59;;;0.30;100.00
42761;BME280;31672;47.638;19.026;2022-11-20T06:09:28;99673.69;;;0.35;100.00
42761;BME280;31672;47.638;19.026;2022-11-20T06:14:31;99668.00;;;0.41;100.00
42761;BME280;31672;47.638;19.026;2022-11-20T06:19:35;99670.91;;;0.49;100.00
42761;BME280;31672;47.638;19.026;2022-11-20T06:24:37;99678.28;;;0.55;100.00
42761;BME280;31672;47.638;19.026;2022-11-20T06:29:40;99659.59;;;0.60;100.00
42761;BME280;31672;47.638;19.026;2022-11-20T06:34:43;99674.09;;;0.64;100.00
42761;BME280;31672;47.638;19.026;2022-11-20T06:39:46;99684.94;;;0.70;100.00
42761;BME280;31672;47.638;19.026;2022-11-20T06:44:49;99685.28;;;0.77;100.00
42761;BME280;31672;47.638;19.026;2022-11-20T06:49:52;99700.28;;;0.86;100.00
42761;BME280;31672;47.638;19.026;2022-11-20T06:54:55;99708.38;;;0.94;100.00
42761;BME280;31672;47.638;19.026;2022-11-20T06:59:58;99709.47;;;1.03;100.00
42761;BME280;31672;47.638;19.026;2022-11-20T07:05:01;99706.34;;;1.09;100.00
42761;BME280;31672;47.638;19.026;2022-11-20T07:10:04;99710.50;;;1.12;100.00
42761;BME280;31672;47.638;19.026;2022-11-20T07:15:09;99713.72;;;1.15;100.00
42761;BME280;31672;47.638;19.026;2022-11-20T07:20:13;99706.47;;;1.19;100.00
42761;BME280;31672;47.638;19.026;2022-11-20T07:25:16;99705.16;;;1.24;100.00
42761;BME280;31672;47.638;19.026;2022-11-20T07:30:19;99711.56;;;1.31;100.00
42761;BME280;31672;47.638;19.026;2022-11-20T07:35:23;99718.69;;;1.41;100.00
42761;BME280;31672;47.638;19.026;2022-11-20T07:40:26;99714.50;;;1.49;100.00
42761;BME280;31672;47.638;19.026;2022-11-20T07:45:29;99719.63;;;1.62;100.00
42761;BME280;31672;47.638;19.026;2022-11-20T07:50:32;99704.00;;;1.72;100.00
42761;BME280;31672;47.638;19.026;2022-11-20T07:55:35;99705.41;;;1.76;100.00
42761;BME280;31672;47.638;19.026;2022-11-20T08:00:38;99713.34;;;1.85;100.00
42761;BME280;31672;47.638;19.026;2022-11-20T08:05:41;99714.28;;;1.96;100.00
42761;BME280;31672;47.638;19.026;2022-11-20T08:10:45;99718.06;;;2.03;100.00
42761;BME280;31672;47.638;19.026;2022-11-20T08:15:50;99715.66;;;2.11;100.00
42761;BME280;31672;47.638;19.026;2022-11-20T08:20:55;99708.25;;;2.16;100.00
42761;BME280;31672;47.638;19.026;2022-11-20T08:25:58;99720.13;;;2.20;100.00
42761;BME280;31672;47.638;19.026;2022-11-20T08:31:02;99725.69;;;2.27;100.00
42761;BME280;31672;47.638;19.026;2022-11-20T08:36:06;99711.72;;;2.37;100.00
42761;BME280;31672;47.638;19.026;2022-11-20T08:41:09;99704.59;;;2.49;100.00
42761;BME280;31672;47.638;19.026;2022-11-20T08:46:38;99716.31;;;2.66;100.00
42761;BME280;31672;47.638;19.026;2022-11-20T08:51:42;99719.41;;;2.81;100.00
42761;BME280;31672;47.638;19.026;2022-11-20T08:56:45;99729.84;;;2.92;100.00
42761;BME280;31672;47.638;19.026;2022-11-20T09:01:48;99725.50;;;3.02;100.00
42761;BME280;31672;47.638;19.026;2022-11-20T09:06:51;99735.19;;;3.11;100.00
42761;BME280;31672;47.638;19.026;2022-11-20T09:11:54;99732.88;;;3.18;100.00
42761;BME280;31672;47.638;19.026;2022-11-20T09:16:57;99724.34;;;3.26;100.00
42761;BME280;31672;47.638;19.026;2022-11-20T09:22:00;99729.06;;;3.32;100.00
42761;BME280;31672;47.638;19.026;2022-11-20T09:27:04;99738.47;;;3.34;100.00
42761;BME280;31672;47.638;19.026;2022-11-20T09:32:07;99735.06;;;3.43;100.00
42761;BME280;31672;47.638;19.026;2022-11-20T09:37:10;99737.00;;;3.51;100.00
42761;BME280;31672;47.638;19.026;2022-11-20T09:58:44;99714.13;;;3.92;100.00
42761;BME280;31672;47.638;19.026;2022-11-20T10:09:26;99701.66;;;4.23;100.00
42761;BME280;31672;47.638;19.026;2022-11-20T10:21:22;99673.63;;;5.07;100.00
42761;BME280;31672;47.638;19.026;2022-11-20T10:32:07;99647.34;;;5.71;99.66
42761;BME280;31672;47.638;19.026;2022-11-20T10:37:19;99645.84;;;6.04;96.05
42761;BME280;31672;47.638;19.026;2022-11-20T10:42:38;99640.66;;;6.38;94.07
42761;BME280;31672;47.638;19.026;2022-11-20T10:47:45;99642.31;;;6.39;88.31
42761;BME280;31672;47.638;19.026;2022-11-20T11:03:25;99639.88;;;6.20;79.64
42761;BME280;31672;47.638;19.026;2022-11-20T11:08:37;99640.47;;;6.13;80.39
42761;BME280;31672;47.638;19.026;2022-11-20T11:13:40;99647.72;;;5.94;79.17
42761;BME280;31672;47.638;19.026;2022-11-20T11:18:43;99652.91;;;5.85;79.87
42761;BME280;31672;47.638;19.026;2022-11-20T11:23:46;99665.78;;;5.71;79.24
42761;BME280;31672;47.638;19.026;2022-11-20T11:29:19;99669.47;;;5.60;79.90
42761;BME280;31672;47.638;19.026;2022-11-20T11:34:22;99687.09;;;5.59;80.15
42761;BME280;31672;47.638;19.026;2022-11-20T11:39:27;99685.44;;;5.76;81.30
42761;BME280;31672;47.638;19.026;2022-11-20T11:44:33;99675.41;;;5.80;79.53
42761;BME280;31672;47.638;19.026;2022-11-20T12:00:40;99626.75;;;5.74;79.69
42761;BME280;31672;47.638;19.026;2022-11-20T12:05:54;99619.44;;;5.68;79.99
42761;BME280;31672;47.638;19.026;2022-11-20T12:11:55;99624.03;;;5.48;80.07
42761;BME280;31672;47.638;19.026;2022-11-20T12:16:39;99637.34;;;5.29;81.02
42761;BME280;31672;47.638;19.026;2022-11-20T12:33:36;99637.56;;;4.80;83.31
42761;BME280;31672;47.638;19.026;2022-11-20T12:44:44;99603.22;;;4.72;84.51
42761;BME280;31672;47.638;19.026;2022-11-20T12:56:29;99608.63;;;4.80;85.28
42761;BME280;31672;47.638;19.026;2022-11-20T13:01:44;99619.66;;;4.84;85.36
42761;BME280;31672;47.638;19.026;2022-11-20T13:06:52;99618.41;;;4.88;85.62
42761;BME280;31672;47.638;19.026;2022-11-20T13:22:55;99631.28;;;5.19;85.81
42761;BME280;31672;47.638;19.026;2022-11-20T13:33:30;99631.69;;;5.24;84.50
42761;BME280;31672;47.638;19.026;2022-11-20T13:38:47;99623.09;;;5.22;84.53
42761;BME280;31672;47.638;19.026;2022-11-20T13:43:52;99617.28;;;5.18;84.84
42761;BME280;31672;47.638;19.026;2022-11-20T13:48:56;99605.81;;;5.09;84.73
42761;BME280;31672;47.638;19.026;2022-11-20T14:05:02;99601.72;;;4.97;86.62
42761;BME280;31672;47.638;19.026;2022-11-20T14:15:34;99596.75;;;4.94;88.98
42761;BME280;31672;47.638;19.026;2022-11-20T14:20:43;99601.25;;;4.84;89.52
42761;BME280;31672;47.638;19.026;2022-11-20T14:25:46;99598.94;;;4.71;89.16
42761;BME280;31672;47.638;19.026;2022-11-20T14:30:50;99598.59;;;4.56;89.12
42761;BME280;31672;47.638;19.026;2022-11-20T14:35:57;99613.16;;;4.41;89.44
42761;BME280;31672;47.638;19.026;2022-11-20T14:41:14;99613.63;;;4.17;88.94
42761;BME280;31672;47.638;19.026;2022-11-20T14:46:18;99617.97;;;3.99;88.93
42761;BME280;31672;47.638;19.026;2022-11-20T14:51:38;99617.56;;;3.84;89.45
42761;BME280;31672;47.638;19.026;2022-11-20T14:57:00;99621.56;;;3.69;89.98
42761;BME280;31672;47.638;19.026;2022-11-20T15:02:08;99628.31;;;3.52;90.25
42761;BME280;31672;47.638;19.026;2022-11-20T15:07:27;99630.53;;;3.37;90.87
42761;BME280;31672;47.638;19.026;2022-11-20T15:12:36;99641.41;;;3.23;91.48
42761;BME280;31672;47.638;19.026;2022-11-20T15:17:40;99637.22;;;3.11;91.81
42761;BME280;31672;47.638;19.026;2022-11-20T15:22:45;99644.50;;;2.98;92.70
42761;BME280;31672;47.638;19.026;2022-11-20T15:27:55;99643.22;;;2.82;93.13
42761;BME280;31672;47.638;19.026;2022-11-20T15:32:58;99636.78;;;2.65;93.77
42761;BME280;31672;47.638;19.026;2022-11-20T15:38:01;99640.56;;;2.52;94.24
42761;BME280;31672;47.638;19.026;2022-11-20T15:43:04;99638.03;;;2.40;94.99
42761;BME280;31672;47.638;19.026;2022-11-20T15:48:23;99645.56;;;2.34;95.91
42761;BME280;31672;47.638;19.026;2022-11-20T15:53:27;99650.63;;;2.26;96.29
42761;BME280;31672;47.638;19.026;2022-11-20T15:58:30;99648.66;;;2.18;96.86
42761;BME280;31672;47.638;19.026;2022-11-20T16:03:33;99647.25;;;2.14;97.52
42761;BME280;31672;47.638;19.026;2022-11-20T16:08:36;99638.69;;;2.12;98.17
42761;BME280;31672;47.638;19.026;2022-11-20T16:13:39;99641.69;;;2.07;98.49
42761;BME280;31672;47.638;19.026;2022-11-20T16:19:01;99639.44;;;2.03;99.08
42761;BME280;31672;47.638;19.026;2022-11-20T16:24:06;99642.81;;;1.94;99.28
42761;BME280;31672;47.638;19.026;2022-11-20T16:29:09;99639.28;;;1.83;99.66
42761;BME280;31672;47.638;19.026;2022-11-20T16:34:12;99644.19;;;1.77;99.99
42761;BME280;31672;47.638;19.026;2022-11-20T16:39:18;99649.13;;;1.70;100.00
42761;BME280;31672;47.638;19.026;2022-11-20T16:44:25;99646.41;;;1.60;100.00
42761;BME280;31672;47.638;19.026;2022-11-20T16:49:28;99650.28;;;1.45;100.00
42761;BME280;31672;47.638;19.026;2022-11-20T16:54:31;99639.34;;;1.29;100.00
42761;BME280;31672;47.638;19.026;2022-11-20T16:59:34;99638.91;;;1.13;100.00
42761;BME280;31672;47.638;19.026;2022-11-20T17:04:39;99626.22;;;0.97;100.00
42761;BME280;31672;47.638;19.026;2022-11-20T17:09:43;99630.00;;;0.82;100.00
42761;BME280;31672;47.638;19.026;2022-11-20T17:14:45;99618.72;;;0.70;100.00
42761;BME280;31672;47.638;19.026;2022-11-20T17:19:48;99615.88;;;0.62;100.00
42761;BME280;31672;47.638;19.026;2022-11-20T17:24:52;99606.25;;;0.51;100.00
42761;BME280;31672;47.638;19.026;2022-11-20T17:29:56;99606.94;;;0.42;100.00
42761;BME280;31672;47.638;19.026;2022-11-20T17:35:00;99600.78;;;0.32;100.00
42761;BME280;31672;47.638;19.026;2022-11-20T17:40:04;99603.38;;;0.20;100.00
42761;BME280;31672;47.638;19.026;2022-11-20T17:45:07;99615.69;;;0.07;100.00
42761;BME280;31672;47.638;19.026;2022-11-20T17:50:10;99605.22;;;-0.04;100.00
42761;BME280;31672;47.638;19.026;2022-11-20T17:55:13;99613.97;;;-0.16;100.00
42761;BME280;31672;47.638;19.026;2022-11-20T18:00:16;99605.75;;;-0.23;100.00
42761;BME280;31672;47.638;19.026;2022-11-20T18:05:19;99610.47;;;-0.28;100.00
42761;BME280;31672;47.638;19.026;2022-11-20T18:10:23;99597.31;;;-0.27;100.00
42761;BME280;31672;47.638;19.026;2022-11-20T18:15:26;99615.81;;;-0.30;100.00
42761;BME280;31672;47.638;19.026;2022-11-20T18:20:28;99616.03;;;-0.33;100.00
42761;BME280;31672;47.638;19.026;2022-11-20T18:25:38;99615.66;;;-0.39;100.00
42761;BME280;31672;47.638;19.026;2022-11-20T18:30:41;99621.22;;;-0.44;100.00
42761;BME280;31672;47.638;19.026;2022-11-20T18:35:44;99635.00;;;-0.42;100.00
42761;BME280;31672;47.638;19.026;2022-11-20T18:40:47;99647.31;;;-0.44;100.00
42761;BME280;31672;47.638;19.026;2022-11-20T18:45:50;99646.91;;;-0.50;100.00
42761;BME280;31672;47.638;19.026;2022-11-20T18:50:54;99654.13;;;-0.54;100.00
42761;BME280;31672;47.638;19.026;2022-11-20T18:55:57;99664.31;;;-0.62;100.00
42761;BME280;31672;47.638;19.026;2022-11-20T19:01:07;99673.72;;;-0.72;100.00
42761;BME280;31672;47.638;19.026;2022-11-20T19:06:13;99665.72;;;-0.82;100.00
42761;BME280;31672;47.638;19.026;2022-11-20T19:11:16;99665.53;;;-0.92;100.00
42761;BME280;31672;47.638;19.026;2022-11-20T19:16:20;99669.50;;;-0.99;100.00
42761;BME280;31672;47.638;19.026;2022-11-20T19:21:24;99669.81;;;-1.03;100.00
42761;BME280;31672;47.638;19.026;2022-11-20T19:26:29;99662.44;;;-1.10;100.00
42761;BME280;31672;47.638;19.026;2022-11-20T19:31:32;99674.34;;;-1.18;100.00
42761;BME280;31672;47.638;19.026;2022-11-20T19:36:37;99691.97;;;-1.22;100.00
42761;BME280;31672;47.638;19.026;2022-11-20T19:41:46;99689.88;;;-1.29;100.00
42761;BME280;31672;47.638;19.026;2022-11-20T19:46:49;99672.06;;;-1.36;100.00
42761;BME280;31672;47.638;19.026;2022-11-20T19:51:52;99658.63;;;-1.42;100.00
42761;BME280;31672;47.638;19.026;2022-11-20T19:56:55;99670.81;;;-1.43;100.00
42761;BME280;31672;47.638;19.026;2022-11-20T20:01:58;99668.81;;;-1.39;100.00
42761;BME280;31672;47.638;19.026;2022-11-20T20:07:01;99648.69;;;-1.24;100.00
42761;BME280;31672;47.638;19.026;2022-11-20T20:12:05;99654.50;;;-1.08;100.00
42761;BME280;31672;47.638;19.026;2022-11-20T20:17:58;99648.34;;;-0.94;100.00
42761;BME280;31672;47.638;19.026;2022-11-20T20:23:52;99634.03;;;-0.89;100.00
42761;BME280;31672;47.638;19.026;2022-11-20T20:52:20;99588.94;;;-0.08;100.00
42761;BME280;31672;47.638;19.026;2022-11-20T20:57:24;99591.91;;;-0.01;100.00
42761;BME280;31672;47.638;19.026;2022-11-20T21:02:26;99603.81;;;0.03;100.00
42761;BME280;31672;47.638;19.026;2022-11-20T21:07:29;99597.28;;;0.09;100.00
42761;BME280;31672;47.638;19.026;2022-11-20T21:12:32;99602.16;;;0.02;100.00
42761;BME280;31672;47.638;19.026;2022-11-20T21:17:35;99601.94;;;-0.19;100.00
42761;BME280;31672;47.638;19.026;2022-11-20T21:22:38;99615.09;;;-0.32;100.00
42761;BME280;31672;47.638;19.026;2022-11-20T21:27:41;99611.09;;;-0.48;100.00
42761;BME280;31672;47.638;19.026;2022-11-20T21:32:44;99608.66;;;-0.63;100.00
42761;BME280;31672;47.638;19.026;2022-11-20T21:37:47;99616.88;;;-0.80;100.00
42761;BME280;31672;47.638;19.026;2022-11-20T21:42:52;99614.75;;;-0.99;100.00
42761;BME280;31672;47.638;19.026;2022-11-20T21:47:55;99623.00;;;-1.05;100.00
42761;BME280;31672;47.638;19.026;2022-11-20T21:52:58;99624.06;;;-1.20;100.00
42761;BME280;31672;47.638;19.026;2022-11-20T21:58:01;99622.75;;;-1.26;100.00
42761;BME280;31672;47.638;19.026;2022-11-20T22:03:05;99626.81;;;-1.35;100.00
42761;BME280;31672;47.638;19.026;2022-11-20T22:08:08;99617.03;;;-1.44;100.00
42761;BME280;31672;47.638;19.026;2022-11-20T22:13:11;99624.75;;;-1.55;100.00
42761;BME280;31672;47.638;19.026;2022-11-20T22:18:32;99627.97;;;-1.64;100.00
42761;BME280;31672;47.638;19.026;2022-11-20T22:23:36;99619.75;;;-1.71;100.00
42761;BME280;31672;47.638;19.026;2022-11-20T22:28:39;99609.63;;;-1.75;100.00
42761;BME280;31672;47.638;19.026;2022-11-20T22:33:43;99598.50;;;-1.77;100.00
42761;BME280;31672;47.638;19.026;2022-11-20T22:38:46;99589.72;;;-1.76;100.00
42761;BME280;31672;47.638;19.026;2022-11-20T22:43:54;99584.53;;;-1.76;100.00
42761;BME280;31672;47.638;19.026;2022-11-20T22:49:04;99569.84;;;-1.77;100.00
42761;BME280;31672;47.638;19.026;2022-11-20T22:54:10;99563.09;;;-1.80;100.00
42761;BME280;31672;47.638;19.026;2022-11-20T22:59:14;99554.75;;;-1.85;100.00
42761;BME280;31672;47.638;19.026;2022-11-20T23:04:20;99559.31;;;-1.89;100.00
42761;BME280;31672;47.638;19.026;2022-11-20T23:09:23;99549.72;;;-1.88;100.00
42761;BME280;31672;47.638;19.026;2022-11-20T23:14:25;99547.25;;;-1.90;100.00
42761;BME280;31672;47.638;19.026;2022-11-20T23:19:29;99538.47;;;-1.89;100.00
42761;BME280;31672;47.638;19.026;2022-11-20T23:24:32;99538.28;;;-1.85;100.00
42761;BME280;31672;47.638;19.026;2022-11-20T23:29:36;99537.00;;;-1.93;100.00
42761;BME280;31672;47.638;19.026;2022-11-20T23:34:39;99535.34;;;-1.94;100.00
42761;BME280;31672;47.638;19.026;2022-11-20T23:39:41;99534.13;;;-2.01;100.00
42761;BME280;31672;47.638;19.026;2022-11-20T23:44:44;99533.69;;;-1.95;100.00
42761;BME280;31672;47.638;19.026;2022-11-20T23:49:48;99530.56;;;-1.87;100.00
42761;BME280;31672;47.638;19.026;2022-11-20T23:54:51;99519.94;;;-1.84;100.00
42761;BME280;31672;47.638;19.026;2022-11-20T23:59:54;99527.44;;;-1.79;100.00
